sensor_id;sensor_type;location;lat;lon;timestamp;P1;durP1;ratioP1;P2;durP2;ratioP2
37051;SDS011;22964;52.272;13.356;2023-07-29T00:02:00;2.88;;;2.20;;
37051;SDS011;22964;52.272;13.356;2023-07-29T00:04:25;3.10;;;2.25;;
37051;SDS011;22964;52.272;13.356;2023-07-29T00:06:51;4.93;;;2.38;;
37051;SDS011;22964;52.272;13.356;2023-07-29T00:09:17;3.75;;;2.40;;
37051;SDS011;22964;52.272;13.356;2023-07-29T00:11:42;3.28;;;2.20;;
37051;SDS011;22964;52.272;13.356;2023-07-29T00:14:08;5.05;;;2.42;;
37051;SDS011;22964;52.272;13.356;2023-07-29T00:16:34;3.30;;;2.28;;
37051;SDS011;22964;52.272;13.356;2023-07-29T00:18:59;3.50;;;2.53;;
37051;SDS011;22964;52.272;13.356;2023-07-29T00:21:25;3.38;;;2.20;;
37051;SDS011;22964;52.272;13.356;2023-07-29T00:23:51;4.13;;;2.13;;
37051;SDS011;22964;52.272;13.356;2023-07-29T00:26:17;3.22;;;2.58;;
37051;SDS011;22964;52.272;13.356;2023-07-29T00:28:42;3.88;;;2.83;;
37051;SDS011;22964;52.272;13.356;2023-07-29T00:31:08;4.93;;;3.20;;
37051;SDS011;22964;52.272;13.356;2023-07-29T00:33:34;3.53;;;2.90;;
37051;SDS011;22964;52.272;13.356;2023-07-29T00:36:00;3.50;;;2.90;;
37051;SDS011;22964;52.272;13.356;2023-07-29T00:38:27;4.38;;;3.30;;
37051;SDS011;22964;52.272;13.356;2023-07-29T00:40:53;3.20;;;2.58;;
37051;SDS011;22964;52.272;13.356;2023-07-29T00:43:19;3.40;;;2.33;;
37051;SDS011;22964;52.272;13.356;2023-07-29T00:45:45;7.25;;;2.58;;
37051;SDS011;22964;52.272;13.356;2023-07-29T00:48:13;3.20;;;2.55;;
37051;SDS011;22964;52.272;13.356;2023-07-29T00:50:39;5.32;;;2.80;;
37051;SDS011;22964;52.272;13.356;2023-07-29T00:53:05;3.38;;;2.45;;
37051;SDS011;22964;52.272;13.356;2023-07-29T00:55:31;3.38;;;2.53;;
37051;SDS011;22964;52.272;13.356;2023-07-29T00:57:57;3.17;;;2.58;;
37051;SDS011;22964;52.272;13.356;2023-07-29T01:00:24;4.03;;;2.40;;
37051;SDS011;22964;52.272;13.356;2023-07-29T01:02:50;3.63;;;2.72;;
37051;SDS011;22964;52.272;13.356;2023-07-29T01:05:19;3.35;;;2.60;;
37051;SDS011;22964;52.272;13.356;2023-07-29T01:18:23;3.33;;;2.53;;
37051;SDS011;22964;52.272;13.356;2023-07-29T01:21:03;6.43;;;2.50;;
37051;SDS011;22964;52.272;13.356;2023-07-29T01:23:30;3.25;;;2.58;;
37051;SDS011;22964;52.272;13.356;2023-07-29T01:25:57;2.95;;;2.45;;
37051;SDS011;22964;52.272;13.356;2023-07-29T01:28:23;3.17;;;2.63;;
37051;SDS011;22964;52.272;13.356;2023-07-29T01:30:51;4.90;;;2.50;;
37051;SDS011;22964;52.272;13.356;2023-07-29T01:33:26;4.75;;;2.50;;
37051;SDS011;22964;52.272;13.356;2023-07-29T01:35:57;3.28;;;2.50;;
37051;SDS011;22964;52.272;13.356;2023-07-29T01:38:32;2.55;;;2.15;;
37051;SDS011;22964;52.272;13.356;2023-07-29T01:41:03;4.28;;;2.20;;
37051;SDS011;22964;52.272;13.356;2023-07-29T01:43:31;4.95;;;2.42;;
37051;SDS011;22964;52.272;13.356;2023-07-29T01:45:57;5.03;;;2.60;;
37051;SDS011;22964;52.272;13.356;2023-07-29T01:48:23;2.85;;;2.35;;
37051;SDS011;22964;52.272;13.356;2023-07-29T01:50:50;3.03;;;2.33;;
37051;SDS011;22964;52.272;13.356;2023-07-29T01:53:15;3.30;;;2.50;;
37051;SDS011;22964;52.272;13.356;2023-07-29T01:55:41;3.97;;;2.20;;
37051;SDS011;22964;52.272;13.356;2023-07-29T01:58:10;3.17;;;2.40;;
37051;SDS011;22964;52.272;13.356;2023-07-29T02:00:39;3.15;;;2.30;;
37051;SDS011;22964;52.272;13.356;2023-07-29T02:03:05;4.38;;;2.63;;
37051;SDS011;22964;52.272;13.356;2023-07-29T02:05:31;3.20;;;2.30;;
37051;SDS011;22964;52.272;13.356;2023-07-29T02:07:56;4.75;;;2.25;;
37051;SDS011;22964;52.272;13.356;2023-07-29T02:10:22;3.75;;;2.47;;
37051;SDS011;22964;52.272;13.356;2023-07-29T02:12:48;4.75;;;2.80;;
37051;SDS011;22964;52.272;13.356;2023-07-29T02:15:14;3.63;;;2.30;;
37051;SDS011;22964;52.272;13.356;2023-07-29T02:17:41;3.97;;;2.60;;
37051;SDS011;22964;52.272;13.356;2023-07-29T02:20:07;3.50;;;2.72;;
37051;SDS011;22964;52.272;13.356;2023-07-29T02:22:34;4.20;;;2.45;;
37051;SDS011;22964;52.272;13.356;2023-07-29T02:24:59;2.85;;;2.47;;
37051;SDS011;22964;52.272;13.356;2023-07-29T02:27:26;4.38;;;2.35;;
37051;SDS011;22964;52.272;13.356;2023-07-29T02:29:54;2.70;;;2.40;;
37051;SDS011;22964;52.272;13.356;2023-07-29T02:32:21;3.30;;;2.42;;
37051;SDS011;22964;52.272;13.356;2023-07-29T02:34:47;2.80;;;2.30;;
37051;SDS011;22964;52.272;13.356;2023-07-29T02:37:14;3.92;;;2.25;;
37051;SDS011;22964;52.272;13.356;2023-07-29T02:39:39;3.10;;;2.35;;
37051;SDS011;22964;52.272;13.356;2023-07-29T02:42:06;4.40;;;2.70;;
37051;SDS011;22964;52.272;13.356;2023-07-29T02:44:31;3.17;;;2.33;;
37051;SDS011;22964;52.272;13.356;2023-07-29T02:46:57;2.78;;;2.38;;
37051;SDS011;22964;52.272;13.356;2023-07-29T02:49:23;2.70;;;2.30;;
37051;SDS011;22964;52.272;13.356;2023-07-29T02:51:49;2.63;;;2.10;;
37051;SDS011;22964;52.272;13.356;2023-07-29T02:54:14;3.53;;;1.90;;
37051;SDS011;22964;52.272;13.356;2023-07-29T02:56:40;2.30;;;2.05;;
37051;SDS011;22964;52.272;13.356;2023-07-29T02:59:06;3.42;;;2.28;;
37051;SDS011;22964;52.272;13.356;2023-07-29T03:01:32;3.00;;;2.50;;
37051;SDS011;22964;52.272;13.356;2023-07-29T03:03:57;3.63;;;2.53;;
37051;SDS011;22964;52.272;13.356;2023-07-29T03:06:23;3.55;;;2.40;;
37051;SDS011;22964;52.272;13.356;2023-07-29T03:08:49;3.38;;;2.30;;
37051;SDS011;22964;52.272;13.356;2023-07-29T03:11:15;3.25;;;2.60;;
37051;SDS011;22964;52.272;13.356;2023-07-29T03:13:41;4.78;;;2.72;;
37051;SDS011;22964;52.272;13.356;2023-07-29T03:16:08;4.30;;;2.88;;
37051;SDS011;22964;52.272;13.356;2023-07-29T03:18:41;2.97;;;2.50;;
37051;SDS011;22964;52.272;13.356;2023-07-29T03:21:07;3.70;;;2.72;;
37051;SDS011;22964;52.272;13.356;2023-07-29T03:23:34;3.80;;;2.70;;
37051;SDS011;22964;52.272;13.356;2023-07-29T03:26:00;5.30;;;2.63;;
37051;SDS011;22964;52.272;13.356;2023-07-29T03:28:30;4.90;;;2.63;;
37051;SDS011;22964;52.272;13.356;2023-07-29T03:30:57;3.72;;;2.70;;
37051;SDS011;22964;52.272;13.356;2023-07-29T03:33:23;7.47;;;2.88;;
37051;SDS011;22964;52.272;13.356;2023-07-29T03:35:50;5.22;;;2.95;;
37051;SDS011;22964;52.272;13.356;2023-07-29T03:38:16;4.28;;;2.58;;
37051;SDS011;22964;52.272;13.356;2023-07-29T03:40:42;3.25;;;2.78;;
37051;SDS011;22964;52.272;13.356;2023-07-29T03:43:08;4.53;;;2.92;;
37051;SDS011;22964;52.272;13.356;2023-07-29T03:45:34;3.40;;;2.58;;
37051;SDS011;22964;52.272;13.356;2023-07-29T03:48:01;4.22;;;2.45;;
37051;SDS011;22964;52.272;13.356;2023-07-29T03:50:28;4.82;;;2.65;;
37051;SDS011;22964;52.272;13.356;2023-07-29T03:52:54;3.20;;;2.42;;
37051;SDS011;22964;52.272;13.356;2023-07-29T03:55:20;3.33;;;2.58;;
37051;SDS011;22964;52.272;13.356;2023-07-29T03:57:46;3.30;;;2.70;;
37051;SDS011;22964;52.272;13.356;2023-07-29T04:00:12;3.00;;;2.65;;
37051;SDS011;22964;52.272;13.356;2023-07-29T04:02:41;3.90;;;2.70;;
37051;SDS011;22964;52.272;13.356;2023-07-29T04:05:09;6.10;;;2.60;;
37051;SDS011;22964;52.272;13.356;2023-07-29T04:07:35;3.35;;;2.50;;
37051;SDS011;22964;52.272;13.356;2023-07-29T04:10:03;3.65;;;2.58;;
37051;SDS011;22964;52.272;13.356;2023-07-29T04:12:30;3.47;;;2.83;;
37051;SDS011;22964;52.272;13.356;2023-07-29T04:14:56;3.35;;;2.40;;
37051;SDS011;22964;52.272;13.356;2023-07-29T04:17:22;3.45;;;2.55;;
37051;SDS011;22964;52.272;13.356;2023-07-29T04:19:47;3.40;;;2.80;;
37051;SDS011;22964;52.272;13.356;2023-07-29T04:22:14;3.97;;;2.70;;
37051;SDS011;22964;52.272;13.356;2023-07-29T04:24:40;5.60;;;2.97;;
37051;SDS011;22964;52.272;13.356;2023-07-29T04:27:06;4.82;;;2.70;;
37051;SDS011;22964;52.272;13.356;2023-07-29T04:29:32;4.15;;;2.85;;
37051;SDS011;22964;52.272;13.356;2023-07-29T04:31:58;3.15;;;2.70;;
37051;SDS011;22964;52.272;13.356;2023-07-29T04:34:23;3.92;;;2.55;;
37051;SDS011;22964;52.272;13.356;2023-07-29T04:36:49;3.28;;;2.78;;
37051;SDS011;22964;52.272;13.356;2023-07-29T04:39:15;3.60;;;2.58;;
37051;SDS011;22964;52.272;13.356;2023-07-29T04:41:41;3.22;;;2.30;;
37051;SDS011;22964;52.272;13.356;2023-07-29T04:44:07;2.80;;;2.40;;
37051;SDS011;22964;52.272;13.356;2023-07-29T04:46:33;4.13;;;2.53;;
37051;SDS011;22964;52.272;13.356;2023-07-29T04:48:58;3.20;;;2.50;;
37051;SDS011;22964;52.272;13.356;2023-07-29T04:51:24;5.43;;;2.40;;
37051;SDS011;22964;52.272;13.356;2023-07-29T04:53:50;2.95;;;2.40;;
37051;SDS011;22964;52.272;13.356;2023-07-29T04:56:16;4.10;;;2.58;;
37051;SDS011;22964;52.272;13.356;2023-07-29T04:58:44;3.78;;;2.50;;
37051;SDS011;22964;52.272;13.356;2023-07-29T05:01:09;3.20;;;2.60;;
37051;SDS011;22964;52.272;13.356;2023-07-29T05:03:35;4.43;;;2.47;;
37051;SDS011;22964;52.272;13.356;2023-07-29T05:06:03;3.08;;;2.58;;
37051;SDS011;22964;52.272;13.356;2023-07-29T05:08:29;3.40;;;2.40;;
37051;SDS011;22964;52.272;13.356;2023-07-29T05:10:55;3.63;;;2.38;;
37051;SDS011;22964;52.272;13.356;2023-07-29T05:13:21;3.42;;;2.28;;
37051;SDS011;22964;52.272;13.356;2023-07-29T05:15:47;4.32;;;2.47;;
37051;SDS011;22964;52.272;13.356;2023-07-29T05:18:14;3.10;;;2.40;;
37051;SDS011;22964;52.272;13.356;2023-07-29T05:20:40;2.65;;;2.20;;
37051;SDS011;22964;52.272;13.356;2023-07-29T05:23:06;2.95;;;2.30;;
37051;SDS011;22964;52.272;13.356;2023-07-29T05:25:32;3.10;;;2.13;;
37051;SDS011;22964;52.272;13.356;2023-07-29T05:28:00;4.97;;;2.30;;
37051;SDS011;22964;52.272;13.356;2023-07-29T05:30:26;5.85;;;2.35;;
37051;SDS011;22964;52.272;13.356;2023-07-29T05:32:56;3.65;;;2.25;;
37051;SDS011;22964;52.272;13.356;2023-07-29T05:35:22;3.40;;;2.35;;
37051;SDS011;22964;52.272;13.356;2023-07-29T05:37:48;2.50;;;2.08;;
37051;SDS011;22964;52.272;13.356;2023-07-29T05:40:14;4.28;;;2.20;;
37051;SDS011;22964;52.272;13.356;2023-07-29T05:42:40;3.58;;;2.20;;
37051;SDS011;22964;52.272;13.356;2023-07-29T05:45:06;2.88;;;2.28;;
37051;SDS011;22964;52.272;13.356;2023-07-29T05:47:32;2.65;;;2.00;;
37051;SDS011;22964;52.272;13.356;2023-07-29T05:49:58;2.60;;;2.08;;
37051;SDS011;22964;52.272;13.356;2023-07-29T05:52:25;2.28;;;1.90;;
37051;SDS011;22964;52.272;13.356;2023-07-29T05:54:50;2.28;;;1.77;;
37051;SDS011;22964;52.272;13.356;2023-07-29T05:57:16;2.38;;;1.80;;
37051;SDS011;22964;52.272;13.356;2023-07-29T05:59:42;2.40;;;1.90;;
37051;SDS011;22964;52.272;13.356;2023-07-29T06:02:07;2.03;;;1.73;;
37051;SDS011;22964;52.272;13.356;2023-07-29T06:04:33;2.70;;;2.00;;
37051;SDS011;22964;52.272;13.356;2023-07-29T06:06:59;3.45;;;1.80;;
37051;SDS011;22964;52.272;13.356;2023-07-29T06:09:25;3.03;;;1.98;;
37051;SDS011;22964;52.272;13.356;2023-07-29T06:11:51;3.53;;;2.00;;
37051;SDS011;22964;52.272;13.356;2023-07-29T06:14:17;2.60;;;1.85;;
37051;SDS011;22964;52.272;13.356;2023-07-29T06:16:42;3.88;;;2.00;;
37051;SDS011;22964;52.272;13.356;2023-07-29T06:19:09;2.40;;;1.80;;
37051;SDS011;22964;52.272;13.356;2023-07-29T06:21:35;1.98;;;1.67;;
37051;SDS011;22964;52.272;13.356;2023-07-29T06:24:01;2.40;;;1.80;;
37051;SDS011;22964;52.272;13.356;2023-07-29T06:26:27;3.45;;;1.98;;
37051;SDS011;22964;52.272;13.356;2023-07-29T06:28:53;5.28;;;2.00;;
37051;SDS011;22964;52.272;13.356;2023-07-29T06:31:19;1.95;;;1.65;;
37051;SDS011;22964;52.272;13.356;2023-07-29T06:33:44;2.72;;;1.80;;
37051;SDS011;22964;52.272;13.356;2023-07-29T06:36:10;2.25;;;1.80;;
37051;SDS011;22964;52.272;13.356;2023-07-29T06:38:36;3.80;;;1.80;;
37051;SDS011;22964;52.272;13.356;2023-07-29T06:41:03;2.05;;;1.70;;
37051;SDS011;22964;52.272;13.356;2023-07-29T06:43:29;3.70;;;1.88;;
37051;SDS011;22964;52.272;13.356;2023-07-29T06:45:55;2.83;;;1.60;;
37051;SDS011;22964;52.272;13.356;2023-07-29T06:48:21;3.10;;;1.50;;
37051;SDS011;22964;52.272;13.356;2023-07-29T06:50:47;2.00;;;1.55;;
37051;SDS011;22964;52.272;13.356;2023-07-29T06:53:12;1.85;;;1.50;;
37051;SDS011;22964;52.272;13.356;2023-07-29T06:55:38;2.28;;;1.60;;
37051;SDS011;22964;52.272;13.356;2023-07-29T06:58:05;2.20;;;1.40;;
37051;SDS011;22964;52.272;13.356;2023-07-29T07:00:30;2.03;;;1.40;;
37051;SDS011;22964;52.272;13.356;2023-07-29T07:02:56;2.10;;;1.40;;
37051;SDS011;22964;52.272;13.356;2023-07-29T07:05:22;1.98;;;1.50;;
37051;SDS011;22964;52.272;13.356;2023-07-29T07:07:47;3.08;;;1.40;;
37051;SDS011;22964;52.272;13.356;2023-07-29T07:10:13;2.13;;;1.50;;
37051;SDS011;22964;52.272;13.356;2023-07-29T07:12:39;2.13;;;1.42;;
37051;SDS011;22964;52.272;13.356;2023-07-29T07:15:05;2.65;;;1.60;;
37051;SDS011;22964;52.272;13.356;2023-07-29T07:17:31;1.70;;;1.30;;
37051;SDS011;22964;52.272;13.356;2023-07-29T07:19:57;2.13;;;1.40;;
37051;SDS011;22964;52.272;13.356;2023-07-29T07:22:23;1.83;;;1.40;;
37051;SDS011;22964;52.272;13.356;2023-07-29T07:24:49;2.65;;;1.67;;
37051;SDS011;22964;52.272;13.356;2023-07-29T07:27:14;2.33;;;1.40;;
37051;SDS011;22964;52.272;13.356;2023-07-29T07:29:40;1.98;;;1.40;;
37051;SDS011;22964;52.272;13.356;2023-07-29T07:32:06;2.10;;;1.50;;
37051;SDS011;22964;52.272;13.356;2023-07-29T07:34:32;1.70;;;1.40;;
37051;SDS011;22964;52.272;13.356;2023-07-29T07:36:58;2.33;;;2.00;;
37051;SDS011;22964;52.272;13.356;2023-07-29T07:39:25;2.80;;;1.50;;
37051;SDS011;22964;52.272;13.356;2023-07-29T07:41:51;2.17;;;1.55;;
37051;SDS011;22964;52.272;13.356;2023-07-29T07:44:17;3.20;;;1.50;;
37051;SDS011;22964;52.272;13.356;2023-07-29T07:46:44;1.80;;;1.40;;
37051;SDS011;22964;52.272;13.356;2023-07-29T07:49:10;2.22;;;1.38;;
37051;SDS011;22964;52.272;13.356;2023-07-29T07:51:37;2.20;;;1.40;;
37051;SDS011;22964;52.272;13.356;2023-07-29T07:54:03;1.88;;;1.38;;
37051;SDS011;22964;52.272;13.356;2023-07-29T07:56:29;11.73;;;1.77;;
37051;SDS011;22964;52.272;13.356;2023-07-29T07:58:55;1.70;;;1.30;;
37051;SDS011;22964;52.272;13.356;2023-07-29T08:01:20;1.90;;;1.40;;
37051;SDS011;22964;52.272;13.356;2023-07-29T08:03:46;1.63;;;1.30;;
37051;SDS011;22964;52.272;13.356;2023-07-29T08:06:12;3.25;;;1.27;;
37051;SDS011;22964;52.272;13.356;2023-07-29T08:08:38;2.17;;;1.50;;
37051;SDS011;22964;52.272;13.356;2023-07-29T08:11:03;3.13;;;1.25;;
37051;SDS011;22964;52.272;13.356;2023-07-29T08:13:29;1.83;;;1.50;;
37051;SDS011;22964;52.272;13.356;2023-07-29T08:15:55;3.67;;;1.60;;
37051;SDS011;22964;52.272;13.356;2023-07-29T08:18:21;1.60;;;1.30;;
37051;SDS011;22964;52.272;13.356;2023-07-29T08:23:20;2.20;;;1.40;;
37051;SDS011;22964;52.272;13.356;2023-07-29T08:25:50;1.67;;;1.30;;
37051;SDS011;22964;52.272;13.356;2023-07-29T08:28:18;1.48;;;1.20;;
37051;SDS011;22964;52.272;13.356;2023-07-29T08:30:44;1.60;;;1.17;;
37051;SDS011;22964;52.272;13.356;2023-07-29T08:33:09;1.90;;;1.27;;
37051;SDS011;22964;52.272;13.356;2023-07-29T08:35:35;1.42;;;1.20;;
37051;SDS011;22964;52.272;13.356;2023-07-29T08:38:01;2.58;;;1.30;;
37051;SDS011;22964;52.272;13.356;2023-07-29T08:40:29;2.15;;;1.20;;
37051;SDS011;22964;52.272;13.356;2023-07-29T08:42:56;2.25;;;1.50;;
37051;SDS011;22964;52.272;13.356;2023-07-29T08:45:26;2.42;;;1.30;;
37051;SDS011;22964;52.272;13.356;2023-07-29T08:47:53;2.10;;;1.40;;
37051;SDS011;22964;52.272;13.356;2023-07-29T08:50:22;1.77;;;1.20;;
37051;SDS011;22964;52.272;13.356;2023-07-29T08:52:49;5.45;;;1.73;;
37051;SDS011;22964;52.272;13.356;2023-07-29T08:55:18;2.20;;;1.30;;
37051;SDS011;22964;52.272;13.356;2023-07-29T08:57:44;1.40;;;1.20;;
37051;SDS011;22964;52.272;13.356;2023-07-29T09:00:11;2.85;;;1.23;;
37051;SDS011;22964;52.272;13.356;2023-07-29T09:02:37;1.63;;;1.33;;
37051;SDS011;22964;52.272;13.356;2023-07-29T09:05:03;1.75;;;1.48;;
37051;SDS011;22964;52.272;13.356;2023-07-29T09:07:30;1.63;;;1.30;;
37051;SDS011;22964;52.272;13.356;2023-07-29T09:09:59;1.90;;;1.30;;
37051;SDS011;22964;52.272;13.356;2023-07-29T09:12:24;1.77;;;1.27;;
37051;SDS011;22964;52.272;13.356;2023-07-29T09:14:53;2.30;;;1.30;;
37051;SDS011;22964;52.272;13.356;2023-07-29T09:17:22;2.03;;;1.13;;
37051;SDS011;22964;52.272;13.356;2023-07-29T09:19:51;1.60;;;1.23;;
37051;SDS011;22964;52.272;13.356;2023-07-29T09:22:17;1.40;;;1.13;;
37051;SDS011;22964;52.272;13.356;2023-07-29T09:24:45;2.42;;;1.40;;
37051;SDS011;22964;52.272;13.356;2023-07-29T09:27:32;2.38;;;1.00;;
37051;SDS011;22964;52.272;13.356;2023-07-29T09:29:58;2.72;;;1.10;;
37051;SDS011;22964;52.272;13.356;2023-07-29T09:32:24;1.63;;;1.00;;
37051;SDS011;22964;52.272;13.356;2023-07-29T09:34:50;1.33;;;1.08;;
37051;SDS011;22964;52.272;13.356;2023-07-29T09:37:23;1.52;;;1.00;;
37051;SDS011;22964;52.272;13.356;2023-07-29T09:39:49;1.83;;;1.20;;
37051;SDS011;22964;52.272;13.356;2023-07-29T09:42:21;1.30;;;0.90;;
37051;SDS011;22964;52.272;13.356;2023-07-29T09:44:48;1.40;;;1.20;;
37051;SDS011;22964;52.272;13.356;2023-07-29T09:47:21;1.60;;;1.20;;
37051;SDS011;22964;52.272;13.356;2023-07-29T09:49:48;1.73;;;1.10;;
37051;SDS011;22964;52.272;13.356;2023-07-29T09:52:15;4.63;;;1.55;;
37051;SDS011;22964;52.272;13.356;2023-07-29T09:54:42;1.20;;;1.02;;
37051;SDS011;22964;52.272;13.356;2023-07-29T09:57:10;1.60;;;1.23;;
37051;SDS011;22964;52.272;13.356;2023-07-29T09:59:36;1.88;;;1.10;;
37051;SDS011;22964;52.272;13.356;2023-07-29T10:02:02;2.83;;;1.30;;
37051;SDS011;22964;52.272;13.356;2023-07-29T10:04:28;1.58;;;1.20;;
37051;SDS011;22964;52.272;13.356;2023-07-29T10:06:55;2.55;;;1.00;;
37051;SDS011;22964;52.272;13.356;2023-07-29T10:09:22;1.58;;;1.17;;
37051;SDS011;22964;52.272;13.356;2023-07-29T10:11:49;1.20;;;1.00;;
37051;SDS011;22964;52.272;13.356;2023-07-29T10:14:15;1.23;;;1.05;;
37051;SDS011;22964;52.272;13.356;2023-07-29T10:16:42;3.50;;;1.30;;
37051;SDS011;22964;52.272;13.356;2023-07-29T10:19:11;1.30;;;1.00;;
37051;SDS011;22964;52.272;13.356;2023-07-29T10:21:39;1.70;;;1.13;;
37051;SDS011;22964;52.272;13.356;2023-07-29T10:24:09;1.30;;;1.10;;
37051;SDS011;22964;52.272;13.356;2023-07-29T10:26:41;1.67;;;1.23;;
37051;SDS011;22964;52.272;13.356;2023-07-29T10:29:12;1.60;;;1.20;;
37051;SDS011;22964;52.272;13.356;2023-07-29T10:31:39;1.83;;;1.30;;
37051;SDS011;22964;52.272;13.356;2023-07-29T10:34:08;1.88;;;1.30;;
37051;SDS011;22964;52.272;13.356;2023-07-29T10:36:35;2.28;;;1.25;;
37051;SDS011;22964;52.272;13.356;2023-07-29T10:39:01;1.98;;;1.10;;
37051;SDS011;22964;52.272;13.356;2023-07-29T10:49:42;1.20;;;1.05;;
37051;SDS011;22964;52.272;13.356;2023-07-29T10:52:12;1.38;;;1.00;;
37051;SDS011;22964;52.272;13.356;2023-07-29T10:54:53;1.45;;;1.20;;
37051;SDS011;22964;52.272;13.356;2023-07-29T11:00:06;2.70;;;1.00;;
37051;SDS011;22964;52.272;13.356;2023-07-29T11:02:36;5.35;;;1.27;;
37051;SDS011;22964;52.272;13.356;2023-07-29T11:05:06;4.90;;;1.58;;
37051;SDS011;22964;52.272;13.356;2023-07-29T11:07:44;3.53;;;1.40;;
37051;SDS011;22964;52.272;13.356;2023-07-29T11:10:13;3.42;;;1.27;;
37051;SDS011;22964;52.272;13.356;2023-07-29T11:12:44;2.67;;;1.42;;
37051;SDS011;22964;52.272;13.356;2023-07-29T11:20:23;3.45;;;1.27;;
37051;SDS011;22964;52.272;13.356;2023-07-29T11:22:59;1.60;;;1.20;;
37051;SDS011;22964;52.272;13.356;2023-07-29T11:25:27;2.72;;;1.40;;
37051;SDS011;22964;52.272;13.356;2023-07-29T11:27:55;3.55;;;1.55;;
37051;SDS011;22964;52.272;13.356;2023-07-29T11:30:22;2.80;;;1.20;;
37051;SDS011;22964;52.272;13.356;2023-07-29T11:32:48;2.40;;;1.25;;
37051;SDS011;22964;52.272;13.356;2023-07-29T11:35:15;3.25;;;1.23;;
37051;SDS011;22964;52.272;13.356;2023-07-29T11:37:43;2.35;;;1.20;;
37051;SDS011;22964;52.272;13.356;2023-07-29T11:40:13;1.77;;;1.27;;
37051;SDS011;22964;52.272;13.356;2023-07-29T11:42:43;2.60;;;1.20;;
37051;SDS011;22964;52.272;13.356;2023-07-29T11:45:10;1.42;;;1.08;;
37051;SDS011;22964;52.272;13.356;2023-07-29T11:47:36;1.70;;;1.10;;
37051;SDS011;22964;52.272;13.356;2023-07-29T11:50:06;1.60;;;1.17;;
37051;SDS011;22964;52.272;13.356;2023-07-29T11:52:39;1.77;;;1.10;;
37051;SDS011;22964;52.272;13.356;2023-07-29T11:55:07;1.90;;;1.10;;
37051;SDS011;22964;52.272;13.356;2023-07-29T11:57:36;1.20;;;1.05;;
37051;SDS011;22964;52.272;13.356;2023-07-29T12:00:03;1.35;;;1.10;;
37051;SDS011;22964;52.272;13.356;2023-07-29T12:02:34;1.58;;;1.17;;
37051;SDS011;22964;52.272;13.356;2023-07-29T12:05:03;1.42;;;1.00;;
37051;SDS011;22964;52.272;13.356;2023-07-29T12:07:30;1.90;;;1.00;;
37051;SDS011;22964;52.272;13.356;2023-07-29T12:09:56;2.08;;;0.90;;
37051;SDS011;22964;52.272;13.356;2023-07-29T12:12:23;1.83;;;0.90;;
37051;SDS011;22964;52.272;13.356;2023-07-29T12:14:48;2.65;;;0.80;;
37051;SDS011;22964;52.272;13.356;2023-07-29T12:17:14;0.98;;;0.60;;
37051;SDS011;22964;52.272;13.356;2023-07-29T12:19:40;0.80;;;0.60;;
37051;SDS011;22964;52.272;13.356;2023-07-29T12:22:08;0.70;;;0.60;;
37051;SDS011;22964;52.272;13.356;2023-07-29T12:24:35;1.38;;;0.80;;
37051;SDS011;22964;52.272;13.356;2023-07-29T12:27:02;2.72;;;0.82;;
37051;SDS011;22964;52.272;13.356;2023-07-29T12:29:28;1.88;;;0.70;;
37051;SDS011;22964;52.272;13.356;2023-07-29T12:31:58;0.93;;;0.70;;
37051;SDS011;22964;52.272;13.356;2023-07-29T12:34:25;0.80;;;0.60;;
37051;SDS011;22964;52.272;13.356;2023-07-29T12:36:53;1.73;;;0.60;;
37051;SDS011;22964;52.272;13.356;2023-07-29T12:39:25;0.85;;;0.63;;
37051;SDS011;22964;52.272;13.356;2023-07-29T12:41:52;0.63;;;0.50;;
37051;SDS011;22964;52.272;13.356;2023-07-29T12:44:21;1.13;;;0.70;;
37051;SDS011;22964;52.272;13.356;2023-07-29T12:46:48;1.25;;;0.80;;
37051;SDS011;22964;52.272;13.356;2023-07-29T12:49:14;1.20;;;0.77;;
37051;SDS011;22964;52.272;13.356;2023-07-29T12:51:40;1.67;;;0.63;;
37051;SDS011;22964;52.272;13.356;2023-07-29T12:54:06;0.82;;;0.60;;
37051;SDS011;22964;52.272;13.356;2023-07-29T12:56:32;0.55;;;0.50;;
37051;SDS011;22964;52.272;13.356;2023-07-29T12:58:59;0.60;;;0.60;;
37051;SDS011;22964;52.272;13.356;2023-07-29T13:01:26;0.80;;;0.70;;
37051;SDS011;22964;52.272;13.356;2023-07-29T13:03:52;0.75;;;0.60;;
37051;SDS011;22964;52.272;13.356;2023-07-29T13:06:18;0.82;;;0.60;;
37051;SDS011;22964;52.272;13.356;2023-07-29T13:08:45;2.05;;;0.50;;
37051;SDS011;22964;52.272;13.356;2023-07-29T13:11:11;0.52;;;0.52;;
37051;SDS011;22964;52.272;13.356;2023-07-29T13:13:37;1.98;;;0.65;;
37051;SDS011;22964;52.272;13.356;2023-07-29T13:16:03;1.75;;;0.50;;
37051;SDS011;22964;52.272;13.356;2023-07-29T13:18:29;0.80;;;0.70;;
37051;SDS011;22964;52.272;13.356;2023-07-29T13:20:55;1.95;;;0.50;;
37051;SDS011;22964;52.272;13.356;2023-07-29T13:23:21;0.82;;;0.57;;
37051;SDS011;22964;52.272;13.356;2023-07-29T13:25:47;2.40;;;0.65;;
37051;SDS011;22964;52.272;13.356;2023-07-29T13:28:12;0.57;;;0.50;;
37051;SDS011;22964;52.272;13.356;2023-07-29T13:30:39;1.67;;;0.60;;
37051;SDS011;22964;52.272;13.356;2023-07-29T13:33:08;0.70;;;0.60;;
37051;SDS011;22964;52.272;13.356;2023-07-29T13:35:34;1.67;;;0.60;;
37051;SDS011;22964;52.272;13.356;2023-07-29T13:38:00;1.67;;;1.00;;
37051;SDS011;22964;52.272;13.356;2023-07-29T13:40:26;2.38;;;1.13;;
37051;SDS011;22964;52.272;13.356;2023-07-29T13:42:52;1.45;;;1.05;;
37051;SDS011;22964;52.272;13.356;2023-07-29T13:45:18;1.60;;;0.90;;
37051;SDS011;22964;52.272;13.356;2023-07-29T13:47:44;1.40;;;0.90;;
37051;SDS011;22964;52.272;13.356;2023-07-29T13:50:10;0.80;;;0.70;;
37051;SDS011;22964;52.272;13.356;2023-07-29T13:52:37;1.27;;;0.85;;
37051;SDS011;22964;52.272;13.356;2023-07-29T13:55:03;1.40;;;0.80;;
37051;SDS011;22964;52.272;13.356;2023-07-29T13:57:30;1.10;;;0.77;;
37051;SDS011;22964;52.272;13.356;2023-07-29T13:59:56;1.20;;;0.65;;
37051;SDS011;22964;52.272;13.356;2023-07-29T14:02:21;1.02;;;0.68;;
37051;SDS011;22964;52.272;13.356;2023-07-29T14:04:47;0.80;;;0.70;;
37051;SDS011;22964;52.272;13.356;2023-07-29T14:07:13;1.23;;;0.68;;
37051;SDS011;22964;52.272;13.356;2023-07-29T14:09:38;0.90;;;0.70;;
37051;SDS011;22964;52.272;13.356;2023-07-29T14:12:04;0.88;;;0.70;;
37051;SDS011;22964;52.272;13.356;2023-07-29T14:14:30;1.00;;;0.68;;
37051;SDS011;22964;52.272;13.356;2023-07-29T14:16:56;1.27;;;0.70;;
37051;SDS011;22964;52.272;13.356;2023-07-29T14:19:22;0.77;;;0.70;;
37051;SDS011;22964;52.272;13.356;2023-07-29T14:21:49;2.03;;;0.68;;
37051;SDS011;22964;52.272;13.356;2023-07-29T14:24:15;0.90;;;0.70;;
37051;SDS011;22964;52.272;13.356;2023-07-29T14:26:42;1.10;;;0.80;;
37051;SDS011;22964;52.272;13.356;2023-07-29T14:29:07;1.20;;;0.70;;
37051;SDS011;22964;52.272;13.356;2023-07-29T14:31:33;2.55;;;1.00;;
37051;SDS011;22964;52.272;13.356;2023-07-29T14:33:59;1.60;;;0.85;;
37051;SDS011;22964;52.272;13.356;2023-07-29T14:36:25;2.85;;;1.05;;
37051;SDS011;22964;52.272;13.356;2023-07-29T14:38:51;2.33;;;0.80;;
37051;SDS011;22964;52.272;13.356;2023-07-29T14:41:17;1.40;;;0.98;;
37051;SDS011;22964;52.272;13.356;2023-07-29T14:43:42;1.58;;;0.80;;
37051;SDS011;22964;52.272;13.356;2023-07-29T14:46:08;1.25;;;0.80;;
37051;SDS011;22964;52.272;13.356;2023-07-29T14:48:34;1.92;;;0.98;;
37051;SDS011;22964;52.272;13.356;2023-07-29T14:51:00;2.72;;;0.90;;
37051;SDS011;22964;52.272;13.356;2023-07-29T14:53:25;1.35;;;0.70;;
37051;SDS011;22964;52.272;13.356;2023-07-29T14:55:51;2.08;;;0.88;;
37051;SDS011;22964;52.272;13.356;2023-07-29T14:58:17;1.98;;;0.93;;
37051;SDS011;22964;52.272;13.356;2023-07-29T15:00:43;1.30;;;0.95;;